Time;durP1;ratioP1;P1;durP2;ratioP2;P2;SDS_P1;SDS_P2;PMS_P1;PMS_P2;Temp;Humidity;BMP_temperature;BMP_pressure;BME280_temperature;BME280_humidity;BME280_pressure;Samples;Min_cycle;Max_cycle;Signal;HPM_P1;HPM_P2
2022/08/18 00:01:44;;;;;;;11.43;10.33;;;;;;;22.39;90.29;97907.94;4172360;28;21021;-86
2022/08/18 00:03:49;;;;;;;12.97;11.30;;;;;;;22.35;89.92;97907.44;4172916;28;20709;-87
2022/08/18 00:06:00;;;;;;;11.80;10.73;;;;;;;22.34;90.09;97903.16;4172066;28;20995;-87
2022/08/18 00:08:04;;;;;;;12.40;11.20;;;;;;;22.32;90.52;97912.31;4174463;28;20674;-86
2022/08/18 00:10:08;;;;;;;12.97;11.67;;;;;;;22.29;90.62;97892.22;4174718;28;20662;-87
2022/08/18 00:12:22;;;;;;;13.73;11.57;;;;;;;22.20;91.43;97891.66;4173480;28;20675;-86
2022/08/18 00:14:25;;;;;;;16.87;11.60;;;;;;;22.17;92.27;97886.69;4165985;28;21047;-87
2022/08/18 00:16:29;;;;;;;12.30;11.10;;;;;;;22.14;92.02;97881.75;4179381;28;20638;-86
2022/08/18 00:18:32;;;;;;;12.33;11.10;;;;;;;22.11;92.52;97876.78;4176271;28;20684;-87
2022/08/18 00:20:35;;;;;;;13.53;11.90;;;;;;;22.08;93.05;97877.97;4171293;28;20642;-86
2022/08/18 00:22:39;;;;;;;13.20;11.80;;;;;;;22.05;92.41;97869.53;4172796;28;21205;-87
2022/08/18 00:24:42;;;;;;;14.93;11.70;;;;;;;22.04;92.97;97875.84;4161286;28;20642;-87
2022/08/18 00:26:51;;;;;;;15.07;11.07;;;;;;;21.99;93.09;97867.59;4159632;28;21045;-87
2022/08/18 00:28:54;;;;;;;13.10;11.67;;;;;;;22.00;92.93;97869.28;4170665;28;21229;-87
2022/08/18 00:30:57;;;;;;;11.90;10.73;;;;;;;22.00;92.88;97862.13;4170239;28;20659;-87
2022/08/18 00:33:02;;;;;;;13.90;10.50;;;;;;;22.01;92.72;97874.41;4169273;28;21165;-87
2022/08/18 00:35:07;;;;;;;13.47;12.00;;;;;;;21.98;93.53;97860.63;4205031;28;20660;-87
2022/08/18 00:37:10;;;;;;;13.13;11.50;;;;;;;21.98;94.51;97857.97;4188213;28;20659;-87
2022/08/18 00:39:13;;;;;;;13.27;11.97;;;;;;;21.95;94.49;97861.84;4171144;28;20630;-86
2022/08/18 00:41:16;;;;;;;12.70;11.40;;;;;;;21.95;94.54;97853.03;4174295;28;21270;-88
2022/08/18 00:43:22;;;;;;;13.70;11.80;;;;;;;21.94;94.60;97854.88;4187095;28;21328;-86
2022/08/18 00:45:28;;;;;;;13.53;11.83;;;;;;;21.93;94.55;97857.69;4173013;28;20619;-86
2022/08/18 00:47:32;;;;;;;12.30;11.20;;;;;;;21.93;94.89;97852.38;4179941;28;20658;-87
2022/08/18 00:49:55;;;;;;;13.60;12.20;;;;;;;21.91;94.58;97849.91;4195653;28;20630;-87
2022/08/18 00:52:00;;;;;;;14.73;11.93;;;;;;;21.91;95.34;97849.09;4173813;28;20632;-87
2022/08/18 00:54:06;;;;;;;13.53;12.23;;;;;;;21.88;95.50;97850.28;4177018;28;20716;-87
2022/08/18 00:56:12;;;;;;;15.40;12.70;;;;;;;21.86;95.35;97846.97;4173509;28;21103;-87
2022/08/18 00:58:20;;;;;;;14.33;12.83;;;;;;;21.81;95.90;97845.84;4158890;28;20635;-87
2022/08/18 01:00:23;;;;;;;14.20;12.80;;;;;;;21.76;96.60;97827.81;4177136;28;20646;-87
2022/08/18 01:02:29;;;;;;;15.47;13.80;;;;;;;21.76;96.38;97837.59;4170600;28;21318;-87
2022/08/18 01:04:36;;;;;;;14.93;12.53;;;;;;;21.75;96.80;97832.47;4155911;28;20656;-88
2022/08/18 01:06:48;;;;;;;14.80;13.37;;;;;;;21.73;97.68;97826.53;4149090;28;20726;-87
2022/08/18 01:08:51;;;;;;;15.33;13.77;;;;;;;21.71;96.88;97825.88;4179285;28;20656;-87
2022/08/18 01:10:54;;;;;;;15.33;13.40;;;;;;;21.70;97.87;97834.84;4148040;28;21217;-87
2022/08/18 01:12:58;;;;;;;16.27;14.63;;;;;;;21.69;97.47;97831.34;4149036;28;21245;-87
2022/08/18 01:15:01;;;;;;;14.23;12.80;;;;;;;21.70;97.64;97829.53;4166074;28;21000;-87
2022/08/18 01:21:52;;;;;;;15.40;13.90;;;;;;;21.69;97.80;97841.97;4197796;28;20675;-86
2022/08/18 01:23:57;;;;;;;14.63;13.03;;;;;;;21.69;97.50;97828.69;4165412;28;20677;-86
2022/08/18 01:25:59;;;;;;;13.80;12.43;;;;;;;21.68;96.86;97824.41;4163235;28;20684;-85
2022/08/18 01:28:03;;;;;;;14.60;13.30;;;;;;;21.64;96.98;97819.63;4169289;28;20632;-86
2022/08/18 01:30:09;;;;;;;15.13;13.63;;;;;;;21.60;97.91;97824.47;4163885;28;20741;-86
2022/08/18 01:32:15;;;;;;;15.93;13.20;;;;;;;21.61;97.41;97826.13;4200980;28;20639;-85
2022/08/18 01:34:20;;;;;;;14.40;13.00;;;;;;;21.61;97.81;97822.66;4167761;28;20657;-87
2022/08/18 01:36:23;;;;;;;16.37;14.63;;;;;;;21.62;98.62;97818.97;4151366;28;21163;-86
2022/08/18 01:38:26;;;;;;;15.93;14.23;;;;;;;21.59;97.61;97814.03;4151455;28;20651;-86
2022/08/18 01:40:31;;;;;;;15.13;13.63;;;;;;;21.54;98.10;97806.59;4184294;28;20629;-86
2022/08/18 01:42:55;;;;;;;15.60;14.03;;;;;;;21.55;98.95;97807.44;4171341;28;21016;-85
2022/08/18 01:44:58;;;;;;;16.63;14.63;;;;;;;21.53;98.01;97791.69;4202629;28;20665;-86
2022/08/18 01:47:04;;;;;;;15.10;13.60;;;;;;;21.55;98.21;97792.31;4169528;28;20665;-86
2022/08/18 01:49:07;;;;;;;16.63;14.93;;;;;;;21.54;98.13;97785.34;4168894;28;20617;-86
2022/08/18 01:51:12;;;;;;;15.47;13.97;;;;;;;21.54;99.04;97788.00;4168909;28;20638;-86
2022/08/18 01:53:16;;;;;;;15.03;13.50;;;;;;;21.53;98.07;97796.16;4169312;28;20637;-86
2022/08/18 01:55:19;;;;;;;16.00;14.47;;;;;;;21.51;97.88;97788.38;4171404;28;20639;-86
2022/08/18 01:57:24;;;;;;;15.37;13.87;;;;;;;21.52;98.84;97783.91;4170122;28;20672;-86
2022/08/18 01:59:27;;;;;;;15.87;14.43;;;;;;;21.52;99.33;97778.59;4206739;28;20644;-86
2022/08/18 02:01:30;;;;;;;16.13;14.53;;;;;;;21.52;98.65;97783.91;4158781;28;20644;-85
2022/08/18 02:03:40;;;;;;;17.20;15.50;;;;;;;21.48;98.38;97772.78;4170714;28;20638;-86
2022/08/18 02:05:47;;;;;;;17.40;14.73;;;;;;;21.46;99.19;97766.03;4173034;28;20627;-87
2022/08/18 02:07:51;;;;;;;17.37;15.43;;;;;;;21.42;98.81;97762.91;4187902;28;21020;-86
2022/08/18 02:09:57;;;;;;;16.30;14.60;;;;;;;21.42;99.41;97752.28;4175413;28;20701;-86
2022/08/18 02:12:01;;;;;;;17.40;15.60;;;;;;;21.41;99.71;97747.16;4189202;28;20712;-86
2022/08/18 02:14:06;;;;;;;16.93;15.20;;;;;;;21.43;98.78;97751.25;4175279;28;20634;-86
2022/08/18 02:16:09;;;;;;;17.03;15.43;;;;;;;21.42;99.53;97740.81;4171520;28;21028;-86
2022/08/18 02:18:15;;;;;;;17.07;13.60;;;;;;;21.42;99.20;97741.66;4184851;28;20621;-86
2022/08/18 02:20:38;;;;;;;16.57;14.73;;;;;;;21.42;99.39;97735.50;4153458;28;20734;-86
2022/08/18 02:22:44;;;;;;;17.80;15.37;;;;;;;21.41;99.16;97732.03;4170629;28;20635;-85
2022/08/18 02:24:47;;;;;;;16.70;15.03;;;;;;;21.38;99.03;97737.72;4168485;28;20642;-86
2022/08/18 02:26:50;;;;;;;17.37;15.57;;;;;;;21.37;99.56;97735.22;4151434;28;20694;-86
2022/08/18 02:28:53;;;;;;;17.13;15.30;;;;;;;21.38;100.00;97744.84;4152146;28;21086;-85
2022/08/18 02:30:58;;;;;;;16.37;14.67;;;;;;;21.34;100.00;97740.91;4169289;28;20648;-86
2022/08/18 02:33:01;;;;;;;18.10;16.20;;;;;;;21.33;99.23;97742.75;4168982;28;20623;-86
2022/08/18 02:35:05;;;;;;;18.70;16.10;;;;;;;21.33;98.77;97737.44;4178359;28;20633;-86
2022/08/18 02:37:13;;;;;;;16.57;14.97;;;;;;;21.31;99.36;97734.09;4169455;28;20751;-86
2022/08/18 02:39:17;;;;;;;16.70;14.97;;;;;;;21.31;99.84;97734.09;4174072;28;21228;-86
2022/08/18 02:41:21;;;;;;;19.10;15.50;;;;;;;21.31;99.64;97739.41;4157946;28;20647;-87
2022/08/18 02:43:26;;;;;;;16.57;15.00;;;;;;;21.30;99.40;97743.09;4188737;28;20748;-85
2022/08/18 02:45:29;;;;;;;16.53;14.43;;;;;;;21.27;99.18;97745.25;4154972;28;21886;-86
2022/08/18 02:47:34;;;;;;;15.33;13.83;;;;;;;21.25;99.98;97738.50;4170413;28;21193;-86
2022/08/18 02:49:37;;;;;;;17.07;15.30;;;;;;;21.21;99.28;97740.66;4173189;28;20662;-86
2022/08/18 02:51:40;;;;;;;15.80;14.30;;;;;;;21.20;100.00;97736.38;4173210;28;20625;-86
2022/08/18 02:53:45;;;;;;;16.03;14.53;;;;;;;21.19;100.00;97734.72;4170223;28;20624;-86
2022/08/18 02:55:49;;;;;;;16.30;14.70;;;;;;;21.21;99.92;97734.53;4157987;28;20638;-86
2022/08/18 02:57:52;;;;;;;16.20;14.60;;;;;;;21.21;100.00;97735.34;4199988;28;20759;-86
2022/08/18 02:59:55;;;;;;;15.60;14.00;;;;;;;21.23;99.52;97735.19;4167975;28;20671;-86
2022/08/18 03:02:01;;;;;;;14.87;13.43;;;;;;;21.24;99.78;97744.81;4174324;28;20616;-86
2022/08/18 03:04:07;;;;;;;16.13;14.30;;;;;;;21.24;99.46;97752.75;4185039;28;20632;-86
2022/08/18 03:06:10;;;;;;;18.00;15.73;;;;;;;21.25;99.49;97752.59;4160799;28;20666;-86
2022/08/18 03:08:13;;;;;;;15.83;14.23;;;;;;;21.23;99.34;97757.25;4173416;28;22637;-86
2022/08/18 03:10:16;;;;;;;18.83;15.93;;;;;;;21.23;99.14;97762.56;4174039;28;21070;-86
2022/08/18 03:12:36;;;;;;;17.20;15.53;;;;;;;21.22;100.00;97760.09;4156613;28;20732;-86
2022/08/18 03:14:39;;;;;;;17.10;15.40;;;;;;;21.21;99.40;97766.38;4171195;28;20656;-86
2022/08/18 03:16:45;;;;;;;17.07;15.37;;;;;;;21.20;99.90;97759.41;4158136;28;21213;-86
2022/08/18 03:18:56;;;;;;;17.70;16.00;;;;;;;21.21;100.00;97764.53;4169963;28;20643;-85
2022/08/18 03:21:06;;;;;;;17.27;15.57;;;;;;;21.20;99.88;97768.22;4172349;28;21039;-86
2022/08/18 03:23:09;;;;;;;17.87;15.90;;;;;;;21.22;99.75;97762.75;4172564;28;20629;-86
2022/08/18 03:25:12;;;;;;;18.10;16.20;;;;;;;21.23;100.00;97767.03;4154492;28;20780;-86
2022/08/18 03:27:15;;;;;;;17.00;15.33;;;;;;;21.23;100.00;97774.97;4175696;28;20634;-86
2022/08/18 03:29:19;;;;;;;18.10;16.30;;;;;;;21.23;100.00;97775.81;4172916;28;20649;-86
2022/08/18 03:31:23;;;;;;;16.63;15.03;;;;;;;21.23;99.74;97778.47;4160808;28;20623;-87
2022/08/18 03:33:29;;;;;;;17.30;15.60;;;;;;;21.22;100.00;97776.81;4176237;28;20639;-86
2022/08/18 03:35:34;;;;;;;17.77;15.97;;;;;;;21.20;99.45;97776.19;4173303;28;20729;-86
2022/08/18 03:37:39;;;;;;;17.90;16.07;;;;;;;21.21;100.00;97766.38;4171355;28;20688;-86
2022/08/18 03:39:42;;;;;;;19.27;17.37;;;;;;;21.18;100.00;97758.78;4173408;28;20697;-86
2022/08/18 03:41:46;;;;;;;17.80;16.00;;;;;;;21.16;100.00;97760.78;4174149;28;20688;-86
2022/08/18 03:44:02;;;;;;;18.03;16.33;;;;;;;21.16;100.00;97761.59;4171711;28;20642;-86
2022/08/18 03:46:10;;;;;;;18.03;16.33;;;;;;;21.15;99.94;97759.94;4151054;28;21133;-85
2022/08/18 03:48:14;;;;;;;18.60;16.60;;;;;;;21.16;100.00;97758.13;4168554;28;21513;-86
2022/08/18 03:50:18;;;;;;;18.87;16.97;;;;;;;21.14;100.00;97752.16;4154417;28;20632;-84
2022/08/18 03:52:22;;;;;;;17.27;15.57;;;;;;;21.12;100.00;97743.56;4172812;28;20659;-87
2022/08/18 03:54:27;;;;;;;18.23;16.33;;;;;;;21.10;100.00;97748.25;4174455;28;20648;-86
2022/08/18 03:56:32;;;;;;;17.63;16.00;;;;;;;21.09;100.00;97750.03;4171140;28;21613;-89
2022/08/18 03:58:35;;;;;;;17.37;15.67;;;;;;;21.10;100.00;97745.59;4172894;28;20689;-88
2022/08/18 04:00:39;;;;;;;17.50;15.80;;;;;;;21.10;100.00;97742.94;4188221;28;21031;-87
2022/08/18 04:02:42;;;;;;;18.63;16.80;;;;;;;21.11;100.00;97736.59;4172567;28;20642;-86
2022/08/18 04:04:45;;;;;;;19.00;17.20;;;;;;;21.12;100.00;97738.25;4157396;28;20693;-87
2022/08/18 04:06:55;;;;;;;18.20;16.40;;;;;;;21.11;100.00;97736.59;4172546;28;20633;-88
2022/08/18 04:09:00;;;;;;;19.67;17.57;;;;;;;21.12;100.00;97735.63;4171452;28;21274;-88
2022/08/18 04:11:05;;;;;;;18.10;16.30;;;;;;;21.12;100.00;97727.66;4170916;28;20626;-88
2022/08/18 04:13:08;;;;;;;19.10;17.20;;;;;;;21.11;100.00;97729.50;4188863;28;20630;-87
2022/08/18 04:15:11;;;;;;;19.40;17.30;;;;;;;21.10;100.00;97724.38;4167897;28;20660;-87
2022/08/18 04:17:14;;;;;;;18.80;16.93;;;;;;;21.11;100.00;97723.34;4172737;28;21394;-87
2022/08/18 04:19:18;;;;;;;19.30;17.23;;;;;;;21.10;100.00;97725.19;4172289;28;20735;-87
2022/08/18 04:21:31;;;;;;;18.37;16.47;;;;;;;21.09;100.00;97718.22;4171264;28;20649;-88
2022/08/18 04:23:34;;;;;;;19.50;17.40;;;;;;;21.08;100.00;97726.34;4169296;28;20637;-87
2022/08/18 04:25:46;;;;;;;18.10;16.30;;;;;;;21.07;100.00;97732.69;4188055;28;20659;-87
2022/08/18 04:27:50;;;;;;;18.33;16.43;;;;;;;21.04;100.00;97735.69;4174117;28;20651;-87
2022/08/18 04:29:55;;;;;;;19.40;17.47;;;;;;;21.04;100.00;97733.84;4170046;28;20639;-86
2022/08/18 04:32:03;;;;;;;18.80;17.00;;;;;;;21.04;100.00;97731.19;4173042;28;20630;-89
2022/08/18 04:34:06;;;;;;;19.20;16.80;;;;;;;21.06;100.00;97744.28;4169546;28;20679;-88
2022/08/18 04:36:11;;;;;;;19.57;17.67;;;;;;;21.05;100.00;97742.63;4172724;28;20684;-88
2022/08/18 04:38:20;;;;;;;19.10;17.30;;;;;;;21.04;100.00;97755.06;4172301;28;20626;-88
2022/08/18 04:40:25;;;;;;;19.10;17.20;;;;;;;21.04;100.00;97757.72;4170661;28;20646;-89
2022/08/18 04:42:29;;;;;;;19.30;17.47;;;;;;;21.02;100.00;97753.63;4174022;28;20748;-89
2022/08/18 04:44:33;;;;;;;21.63;19.43;;;;;;;21.02;100.00;97758.91;4173024;28;21337;-87
2022/08/18 04:46:39;;;;;;;19.60;17.60;;;;;;;21.05;100.00;97771.78;4176967;28;20661;-88
2022/08/18 04:48:42;;;;;;;19.30;17.40;;;;;;;21.04;100.00;97765.69;4173176;28;20621;-88
2022/08/18 04:50:47;;;;;;;21.23;19.03;;;;;;;21.08;100.00;97763.50;4158225;28;20703;-89
2022/08/18 04:55:11;;;;;;;20.17;18.17;;;;;;;21.11;100.00;97769.28;4172656;28;20991;-88
2022/08/18 04:57:15;;;;;;;21.67;19.23;;;;;;;21.14;100.00;97773.38;4174185;28;20629;-88
2022/08/18 04:59:19;;;;;;;21.40;19.20;;;;;;;21.14;100.00;97762.78;4177076;28;20632;-88
2022/08/18 05:01:25;;;;;;;20.87;18.83;;;;;;;21.08;100.00;97766.13;4176442;28;20652;-87
2022/08/18 05:03:29;;;;;;;21.87;19.57;;;;;;;21.05;100.00;97771.78;4173603;28;20642;-89
2022/08/18 05:05:32;;;;;;;21.07;18.97;;;;;;;21.08;100.00;97782.91;4155776;28;20641;-88
2022/08/18 05:07:35;;;;;;;22.63;19.03;;;;;;;21.13;100.00;97787.69;4160535;28;20725;-85
2022/08/18 05:09:40;;;;;;;22.43;20.03;;;;;;;21.20;100.00;97793.91;4173469;28;20633;-87
2022/08/18 05:11:44;;;;;;;21.83;19.40;;;;;;;21.27;100.00;97794.88;4175422;28;20992;-85
2022/08/18 05:13:47;;;;;;;23.63;21.07;;;;;;;21.35;100.00;97793.78;4173638;28;20632;-85
2022/08/18 05:15:53;;;;;;;22.27;20.00;;;;;;;21.45;100.00;97799.69;4158143;28;20688;-85
2022/08/18 05:18:14;;;;;;;22.33;20.20;;;;;;;21.51;100.00;97803.47;4168512;28;20642;-86
2022/08/18 05:20:22;;;;;;;22.20;19.80;;;;;;;21.53;100.00;97797.00;4175410;28;20633;-86
2022/08/18 05:22:25;;;;;;;22.37;20.07;;;;;;;21.57;100.00;97800.09;4173243;28;20636;-86
2022/08/18 05:24:35;;;;;;;23.93;21.57;;;;;;;21.60;100.00;97805.88;4174694;28;20727;-85
2022/08/18 05:26:40;;;;;;;22.30;20.10;;;;;;;21.60;100.00;97800.56;4172500;28;20660;-86
2022/08/18 05:28:44;;;;;;;23.73;19.43;;;;;;;21.62;100.00;97806.53;4171535;28;20636;-86
2022/08/18 05:30:47;;;;;;;22.97;20.67;;;;;;;21.63;100.00;97792.25;4171964;28;20667;-86
2022/08/18 05:32:51;;;;;;;21.83;19.63;;;;;;;21.67;100.00;97779.44;4160985;28;20684;-86
2022/08/18 05:34:55;;;;;;;21.20;19.07;;;;;;;21.77;100.00;97776.34;4169697;28;21323;-86
2022/08/18 05:37:10;;;;;;;21.80;19.70;;;;;;;21.93;100.00;97776.16;4159013;28;20729;-86
2022/08/18 05:39:19;;;;;;;22.57;20.13;;;;;;;22.03;99.43;97781.22;4152426;28;21250;-85
2022/08/18 05:41:27;;;;;;;21.70;19.27;;;;;;;22.07;99.05;97782.50;4151138;28;20642;-86
2022/08/18 05:43:32;;;;;;;22.20;19.87;;;;;;;22.11;98.87;97776.63;4146638;28;20684;-86
2022/08/18 05:45:35;;;;;;;21.33;19.00;;;;;;;22.20;99.17;97782.69;4170610;28;20639;-86
2022/08/18 05:47:38;;;;;;;22.17;19.97;;;;;;;22.20;99.08;97780.03;4150002;28;20641;-86
2022/08/18 05:49:43;;;;;;;21.70;19.57;;;;;;;22.20;99.50;97780.03;4168025;28;20675;-86
2022/08/18 05:51:49;;;;;;;22.17;19.83;;;;;;;22.25;99.59;97789.13;4172853;28;20721;-86
2022/08/18 05:58:37;;;;;;;23.67;21.27;;;;;;;22.67;96.44;97779.44;4173783;28;20645;-86
2022/08/18 06:00:41;;;;;;;22.50;20.40;;;;;;;22.85;96.33;97777.19;4169813;28;21190;-85
2022/08/18 06:02:48;;;;;;;21.87;19.57;;;;;;;22.96;94.01;97779.41;4174009;28;20655;-87
2022/08/18 06:04:52;;;;;;;22.43;20.23;;;;;;;23.12;93.69;97774.63;4174445;28;20743;-86
2022/08/18 06:07:01;;;;;;;22.53;20.33;;;;;;;23.25;92.48;97769.44;4167146;28;20696;-86
2022/08/18 06:09:11;;;;;;;22.57;20.40;;;;;;;23.36;92.00;97767.13;4189045;28;20725;-86
2022/08/18 06:11:14;;;;;;;22.07;20.00;;;;;;;23.46;91.74;97775.59;4168772;28;20627;-90
2022/08/18 06:13:24;;;;;;;21.00;19.10;;;;;;;23.46;92.70;97780.91;4148748;28;20697;-86
2022/08/18 06:15:32;;;;;;;21.40;19.40;;;;;;;23.32;91.87;97781.00;4186745;28;20638;-86
2022/08/18 06:18:01;;;;;;;22.60;20.50;;;;;;;23.20;92.39;97793.16;4176011;28;20636;-86
2022/08/18 06:20:09;;;;;;;23.83;21.43;;;;;;;23.10;94.40;97805.13;4169003;28;20642;-86
2022/08/18 06:22:24;;;;;;;22.77;20.33;;;;;;;23.04;95.14;97811.22;4170995;28;20660;-86
2022/08/18 06:24:36;;;;;;;21.37;19.27;;;;;;;22.96;94.24;97820.13;4173854;28;20626;-85
2022/08/18 06:26:44;;;;;;;21.27;19.07;;;;;;;22.90;93.99;97822.69;4176295;28;21220;-85
2022/08/18 06:28:59;;;;;;;20.60;18.70;;;;;;;22.85;93.26;97817.09;4175076;28;21049;-84
2022/08/18 06:31:05;;;;;;;22.27;20.07;;;;;;;22.82;94.28;97820.97;4173418;28;21157;-86
2022/08/18 06:33:16;;;;;;;23.90;21.33;;;;;;;22.78;95.36;97818.88;4169520;28;20742;-86
2022/08/18 06:35:26;;;;;;;20.73;18.73;;;;;;;22.77;95.15;97830.50;4174061;28;20650;-85
2022/08/18 06:38:37;;;;;;;22.20;20.00;;;;;;;22.74;95.46;97823.72;4177117;28;21028;-85
2022/08/18 06:39:58;;;;;;;21.10;19.00;;;;;;;22.76;95.11;97820.88;4163620;28;20638;-85
2022/08/18 06:42:04;;;;;;;22.13;19.93;;;;;;;22.80;94.68;97815.00;4176923;28;21235;-85
2022/08/18 06:44:10;;;;;;;21.83;19.50;;;;;;;22.82;94.75;97823.63;4156015;28;20647;-85
2022/08/18 06:46:18;;;;;;;21.30;19.20;;;;;;;22.85;93.22;97822.41;4173048;28;20626;-85
2022/08/18 06:48:25;;;;;;;21.53;19.43;;;;;;;22.89;93.22;97823.69;4171484;28;20653;-85
2022/08/18 06:50:33;;;;;;;19.83;17.83;;;;;;;22.95;92.55;97825.66;4170069;28;20727;-86
2022/08/18 06:52:39;;;;;;;21.57;19.47;;;;;;;23.00;92.67;97828.56;4154093;28;20635;-85
2022/08/18 06:54:42;;;;;;;21.53;19.43;;;;;;;23.04;92.79;97835.97;4173121;28;21226;-85
2022/08/18 06:56:54;;;;;;;21.93;19.77;;;;;;;23.05;92.56;97820.81;4170470;28;20635;-85
2022/08/18 06:59:14;;;;;;;24.33;22.03;;;;;;;23.15;92.02;97829.34;4172623;28;20647;-86
2022/08/18 07:01:17;;;;;;;20.93;19.03;;;;;;;23.27;94.14;97821.50;4169120;28;20679;-86
2022/08/18 07:03:23;;;;;;;20.03;18.00;;;;;;;23.36;91.60;97816.84;4148822;28;20620;-85
2022/08/18 07:05:28;;;;;;;21.63;19.50;;;;;;;23.45;90.80;97819.19;4145546;28;20646;-85
2022/08/18 07:07:33;;;;;;;21.10;18.93;;;;;;;23.52;90.30;97812.09;4172994;28;21129;-85
2022/08/18 07:09:44;;;;;;;21.30;19.20;;;;;;;23.48;89.20;97810.81;4155670;28;20628;-86
2022/08/18 07:12:01;;;;;;;20.50;18.50;;;;;;;23.50;89.41;97808.81;4186858;28;20985;-86
2022/08/18 07:14:14;;;;;;;19.97;17.97;;;;;;;23.52;89.88;97804.09;4166552;28;20711;-86
2022/08/18 07:16:23;;;;;;;19.10;17.30;;;;;;;23.51;89.88;97797.13;4175370;28;20627;-86
2022/08/18 07:18:46;;;;;;;18.13;16.43;;;;;;;23.58;90.10;97803.34;4172536;28;20638;-86
2022/08/18 07:20:53;;;;;;;20.27;18.27;;;;;;;23.58;89.54;97810.53;4167322;28;20636;-86
2022/08/18 07:22:58;;;;;;;18.97;17.07;;;;;;;23.55;88.71;97794.94;4168054;28;20639;-85
2022/08/18 07:25:04;;;;;;;19.87;17.80;;;;;;;23.54;88.78;97798.59;4183085;28;20735;-86
2022/08/18 07:27:09;;;;;;;21.30;19.13;;;;;;;23.53;89.15;97797.78;4204001;28;20641;-86
2022/08/18 07:29:14;;;;;;;20.60;18.60;;;;;;;23.51;90.06;97805.13;4167980;28;21223;-86
2022/08/18 07:31:36;;;;;;;20.37;18.33;;;;;;;23.47;89.26;97800.34;4165950;28;21292;-85
2022/08/18 07:33:42;;;;;;;19.00;17.20;;;;;;;23.49;90.84;97801.03;4155297;28;20720;-86
2022/08/18 07:35:48;;;;;;;17.70;16.03;;;;;;;23.54;89.69;97799.41;4180740;28;20619;-85
2022/08/18 07:37:55;;;;;;;20.27;18.20;;;;;;;23.58;89.46;97800.69;4172548;28;20679;-86
2022/08/18 07:40:05;;;;;;;22.23;19.93;;;;;;;23.65;91.12;97812.25;4171306;28;20685;-86
2022/08/18 07:42:13;;;;;;;21.90;19.63;;;;;;;23.75;90.53;97818.91;4167984;28;20658;-86
2022/08/18 07:44:43;;;;;;;21.30;19.30;;;;;;;23.89;88.17;97823.31;4167699;28;20631;-86
2022/08/18 07:46:55;;;;;;;21.03;18.87;;;;;;;24.19;90.43;97828.25;4170625;28;20635;-86
2022/08/18 07:48:58;;;;;;;21.47;19.13;;;;;;;24.46;89.21;97827.44;4155335;28;20660;-85
2022/08/18 07:51:08;;;;;;;20.27;18.37;;;;;;;24.52;87.27;97815.97;4173393;28;20663;-86
2022/08/18 07:53:18;;;;;;;20.23;18.23;;;;;;;24.40;85.88;97820.22;4168930;28;20638;-86
2022/08/18 07:55:28;;;;;;;19.93;18.03;;;;;;;24.35;87.88;97825.28;4171637;28;20689;-86
2022/08/18 07:57:40;;;;;;;20.73;18.70;;;;;;;24.30;88.40;97827.69;4170276;28;21238;-86
2022/08/18 07:59:48;;;;;;;19.87;18.03;;;;;;;24.29;87.20;97834.03;4167759;28;21287;-86
2022/08/18 08:01:55;;;;;;;20.13;18.30;;;;;;;24.25;88.00;97830.13;4173675;28;20731;-87
2022/08/18 08:04:07;;;;;;;20.07;17.93;;;;;;;24.20;88.11;97837.06;4168575;28;20693;-86
2022/08/18 08:06:19;;;;;;;18.70;16.90;;;;;;;24.11;88.09;97838.22;4171355;28;21192;-86
2022/08/18 08:08:26;;;;;;;19.43;17.53;;;;;;;24.01;88.09;97852.91;4170927;28;21296;-86
2022/08/18 08:10:34;;;;;;;18.40;16.13;;;;;;;23.90;87.33;97856.94;4169166;28;20677;-85
2022/08/18 08:12:41;;;;;;;19.67;17.67;;;;;;;23.79;88.38;97860.13;4170253;28;20643;-85
2022/08/18 08:14:46;;;;;;;18.87;16.93;;;;;;;23.67;88.32;97863.50;4150606;28;21113;-84
2022/08/18 08:16:51;;;;;;;21.40;19.40;;;;;;;23.54;88.62;97857.19;4170041;28;20633;-84
2022/08/18 08:19:01;;;;;;;23.00;20.60;;;;;;;23.42;89.42;97864.84;4169073;28;20635;-85
2022/08/18 08:21:16;;;;;;;19.30;17.40;;;;;;;23.34;89.69;97862.31;4150661;28;20719;-85
2022/08/18 08:23:26;;;;;;;18.13;16.33;;;;;;;23.22;90.14;97858.50;4183636;28;20658;-85
2022/08/18 08:25:34;;;;;;;16.03;14.43;;;;;;;23.15;89.68;97854.13;4172297;28;20637;-84
2022/08/18 08:27:59;;;;;;;14.73;13.17;;;;;;;23.11;88.35;97860.00;4152967;28;20629;-84
2022/08/18 08:30:05;;;;;;;15.77;14.30;;;;;;;23.11;88.82;97852.84;4154738;28;21208;-84
2022/08/18 08:32:12;;;;;;;14.60;13.30;;;;;;;23.12;88.93;97849.16;4170590;28;20733;-83
2022/08/18 08:34:20;;;;;;;15.03;13.47;;;;;;;23.14;89.91;97857.81;4173188;28;21081;-84
2022/08/18 08:36:28;;;;;;;13.50;12.20;;;;;;;23.15;89.41;97867.41;4159582;28;20794;-85
2022/08/18 08:38:42;;;;;;;13.30;12.10;;;;;;;23.15;88.41;97874.59;4172993;28;20649;-84
2022/08/18 08:40:52;;;;;;;12.13;10.93;;;;;;;23.11;88.62;97878.63;4170730;28;20663;-85
2022/08/18 08:43:00;;;;;;;12.57;11.27;;;;;;;23.06;87.80;97873.06;4169731;28;20668;-84
2022/08/18 08:45:07;;;;;;;13.43;12.13;;;;;;;23.04;88.33;97856.47;4169125;28;21060;-84
2022/08/18 08:47:15;;;;;;;13.90;12.10;;;;;;;23.02;88.31;97851.31;4174936;28;20637;-84
2022/08/18 08:49:32;;;;;;;12.63;11.33;;;;;;;23.01;88.53;97828.38;4174243;28;20664;-85
2022/08/18 08:51:47;;;;;;;14.40;12.90;;;;;;;22.97;87.91;97823.63;4172419;28;20735;-86
2022/08/18 08:54:00;;;;;;;13.53;12.23;;;;;;;22.95;88.67;97809.69;4192387;28;20626;-87
2022/08/18 08:56:29;;;;;;;13.80;12.40;;;;;;;22.96;88.80;97800.69;4192527;28;20645;-87
2022/08/18 08:58:37;;;;;;;13.63;12.43;;;;;;;22.95;88.70;97789.22;4173547;28;20732;-85
2022/08/18 09:00:58;;;;;;;13.73;12.47;;;;;;;22.90;88.62;97777.47;4154875;28;21236;-87
2022/08/18 09:03:30;;;;;;;14.67;13.20;;;;;;;22.95;89.64;97786.53;4158968;28;20638;-85
2022/08/18 09:05:40;;;;;;;15.70;13.17;;;;;;;23.01;89.36;97799.09;4155227;28;20643;-86
2022/08/18 09:08:01;;;;;;;13.63;12.30;;;;;;;23.10;88.98;97799.81;4160906;28;20649;-87
2022/08/18 09:10:40;;;;;;;14.40;12.80;;;;;;;23.15;89.48;97790.22;4167146;28;20653;-84
2022/08/18 09:13:02;;;;;;;13.87;12.47;;;;;;;23.15;88.74;97790.22;4170591;28;20634;-84
2022/08/18 09:15:20;;;;;;;12.60;11.30;;;;;;;23.20;88.38;97799.31;4175274;28;20760;-84
2022/08/18 09:17:41;;;;;;;13.87;12.57;;;;;;;23.27;88.57;97808.19;4158581;28;20643;-84
2022/08/18 09:19:57;;;;;;;14.37;12.87;;;;;;;23.33;87.70;97809.25;4176059;28;20639;-84
2022/08/18 09:22:06;;;;;;;16.17;12.80;;;;;;;23.40;87.04;97810.16;4158762;28;20649;-84
2022/08/18 09:24:20;;;;;;;14.90;13.40;;;;;;;23.48;87.61;97786.03;4175709;28;20641;-85
2022/08/18 09:26:39;;;;;;;14.20;12.90;;;;;;;23.59;86.66;97767.72;4171630;28;20641;-85
2022/08/18 09:28:58;;;;;;;14.17;12.77;;;;;;;23.75;87.92;97764.78;4183647;28;20655;-85
2022/08/18 09:31:18;;;;;;;17.80;16.00;;;;;;;23.93;87.39;97771.25;4175392;28;21228;-85
2022/08/18 09:33:28;;;;;;;15.87;14.10;;;;;;;24.00;87.62;97766.00;4171377;28;20634;-85
2022/08/18 09:36:06;;;;;;;13.17;11.87;;;;;;;24.06;86.95;97778.53;4171437;28;21182;-85
2022/08/18 09:43:16;;;;;;;14.80;13.40;;;;;;;24.27;85.04;97812.09;4140807;28;20737;-86
2022/08/18 09:45:54;;;;;;;15.33;13.87;;;;;;;24.43;85.09;97818.97;4143088;28;20735;-86
2022/08/18 09:48:02;;;;;;;14.43;13.00;;;;;;;24.64;84.17;97806.34;4120313;28;20736;-86
2022/08/18 09:50:32;;;;;;;15.90;14.13;;;;;;;24.88;84.09;97800.50;4172514;28;20665;-86
2022/08/18 09:52:56;;;;;;;15.70;14.30;;;;;;;24.94;82.33;97805.03;4157018;28;21243;-86
2022/08/18 09:55:01;;;;;;;13.80;12.60;;;;;;;25.06;82.12;97806.94;4176348;28;20632;-86
2022/08/18 09:57:17;;;;;;;15.47;13.93;;;;;;;25.49;81.45;97806.41;4173459;28;21018;-85
2022/08/18 09:59:57;;;;;;;15.23;13.80;;;;;;;25.83;80.86;97803.56;4172125;28;20621;-86
2022/08/18 10:02:05;;;;;;;14.60;13.20;;;;;;;25.92;77.89;97803.19;4169018;28;20618;-85
2022/08/18 10:04:31;;;;;;;14.63;13.20;;;;;;;25.75;77.63;97806.47;4170329;28;20646;-88